Time;durP1;ratioP1;P1;durP2;ratioP2;P2;SDS_P1;SDS_P2;PMS_P1;PMS_P2;Temp;Humidity;BMP_temperature;BMP_pressure;BME280_temperature;BME280_humidity;BME280_pressure;Samples;Min_cycle;Max_cycle;Signal;HPM_P1;HPM_P2
2023/06/26 00:01:39;;;;;;;4.25;3.65;;;26.20;97.60;;;;;;5014590;28;20105;-39
2023/06/26 00:04:05;;;;;;;3.92;3.47;;;26.10;97.80;;;;;;5012965;28;20033;-40
2023/06/26 00:06:31;;;;;;;7.15;3.60;;;26.00;98.10;;;;;;5028619;28;20022;-39
2023/06/26 00:08:58;;;;;;;3.65;3.30;;;25.90;98.40;;;;;;5034063;28;20481;-40
2023/06/26 00:11:24;;;;;;;;;;;25.80;98.50;;;;;;5034812;28;20076;-39
2023/06/26 00:13:50;;;;;;;6.18;3.67;;;25.70;98.90;;;;;;5034204;28;20369;-39
2023/06/26 00:16:16;;;;;;;;;;;25.60;99.30;;;;;;5034313;28;20096;-37
2023/06/26 00:18:42;;;;;;;7.10;4.03;;;25.50;99.50;;;;;;5033608;28;19913;-40
2023/06/26 00:21:08;;;;;;;5.05;3.10;;;25.40;99.60;;;;;;5033572;28;20033;-42
2023/06/26 00:23:36;;;;;;;5.45;3.83;;;25.40;99.90;;;;;;5033896;28;20466;-54
2023/06/26 00:26:04;;;;;;;3.83;3.40;;;25.30;99.90;;;;;;5029053;28;20076;-39
2023/06/26 00:28:29;;;;;;;3.72;3.40;;;25.20;99.90;;;;;;5021502;28;20030;-43
2023/06/26 00:30:55;;;;;;;4.65;3.85;;;25.20;99.90;;;;;;5013755;28;20706;-41
2023/06/26 00:33:22;;;;;;;4.95;3.80;;;25.10;99.90;;;;;;5028296;28;20112;-45
2023/06/26 00:35:47;;;;;;;5.50;3.90;;;25.10;99.90;;;;;;5034071;28;20087;-40
2023/06/26 00:38:13;;;;;;;4.68;3.65;;;25.10;99.90;;;;;;5032298;28;20021;-39
2023/06/26 00:40:38;;;;;;;6.75;4.28;;;25.00;99.90;;;;;;5013872;28;20109;-40
2023/06/26 00:43:04;;;;;;;4.88;3.95;;;25.00;99.90;;;;;;5013890;28;20101;-41
2023/06/26 00:45:29;;;;;;;4.38;3.92;;;24.90;99.90;;;;;;5013530;28;20025;-41
2023/06/26 00:47:55;;;;;;;4.57;3.58;;;24.90;99.90;;;;;;5013765;28;20438;-39
2023/06/26 00:50:21;;;;;;;5.25;3.85;;;24.90;99.90;;;;;;5013679;28;20111;-41
2023/06/26 00:52:47;;;;;;;4.78;4.05;;;24.80;99.90;;;;;;5013704;28;20496;-38
2023/06/26 00:55:13;;;;;;;8.45;4.10;;;24.70;99.90;;;;;;5013639;28;20441;-41
2023/06/26 00:57:38;;;;;;;5.30;3.83;;;24.60;99.90;;;;;;5013828;28;20470;-40
2023/06/26 01:00:05;;;;;;;5.43;4.10;;;24.50;99.90;;;;;;5012210;28;20033;-40
2023/06/26 01:02:33;;;;;;;3.53;3.15;;;24.40;99.90;;;;;;5013438;28;20037;-38
2023/06/26 01:05:03;;;;;;;5.82;3.70;;;24.30;99.90;;;;;;5012402;28;20037;-44
2023/06/26 01:07:29;;;;;;;7.43;4.22;;;24.20;99.90;;;;;;5013351;28;20478;-39
2023/06/26 01:09:55;;;;;;;5.10;4.50;;;24.00;99.90;;;;;;5013383;28;20434;-41
2023/06/26 01:12:21;;;;;;;4.72;4.30;;;24.00;99.90;;;;;;5012424;28;20060;-40
2023/06/26 01:14:47;;;;;;;6.13;4.40;;;23.80;99.90;;;;;;5022144;28;20105;-40
2023/06/26 01:17:14;;;;;;;5.45;4.30;;;23.80;99.90;;;;;;5032769;28;20100;-58
2023/06/26 01:19:41;;;;;;;6.05;4.38;;;23.60;99.90;;;;;;5022163;28;20037;-33
2023/06/26 01:22:31;;;;;;;6.85;4.00;;;23.60;99.90;;;;;;5032724;28;20528;-32
2023/06/26 01:25:19;;;;;;;3.50;3.10;;;23.50;99.90;;;;;;5014661;28;20486;-37
2023/06/26 01:27:50;;;;;;;4.03;3.25;;;23.40;99.90;;;;;;4993592;28;20034;-35
2023/06/26 01:30:17;;;;;;;5.57;3.42;;;23.30;99.90;;;;;;5013434;28;20128;-36
2023/06/26 01:32:44;;;;;;;15.95;3.88;;;23.30;99.90;;;;;;5032847;28;20028;-35
2023/06/26 01:35:10;;;;;;;;;;;23.20;99.90;;;;;;5033255;28;20101;-33
2023/06/26 01:37:36;;;;;;;6.05;3.97;;;23.10;99.90;;;;;;5022115;28;19960;-33
2023/06/26 01:40:05;;;;;;;4.80;3.25;;;23.00;99.90;;;;;;5012766;28;20077;-36
2023/06/26 01:42:34;;;;;;;5.03;2.85;;;23.00;99.90;;;;;;5013215;28;20498;-34
2023/06/26 01:45:11;;;;;;;11.82;3.00;;;23.00;99.90;;;;;;5012954;28;20516;-34
2023/06/26 01:47:40;;;;;;;4.57;2.97;;;22.90;99.90;;;;;;5011702;28;20121;-36
2023/06/26 01:50:17;;;;;;;5.80;3.22;;;22.80;99.90;;;;;;5012041;28;20045;-36
2023/06/26 01:52:53;;;;;;;6.85;3.38;;;22.80;99.90;;;;;;5009374;28;20030;-34
2023/06/26 01:55:24;;;;;;;6.20;2.83;;;22.80;99.90;;;;;;5014110;28;20058;-35
2023/06/26 01:57:53;;;;;;;4.57;2.25;;;22.70;99.90;;;;;;5012783;28;20382;-36
2023/06/26 02:00:21;;;;;;;11.80;3.10;;;22.70;99.90;;;;;;5012810;28;20069;-39
2023/06/26 02:02:46;;;;;;;;;;;22.50;99.90;;;;;;5013506;28;20034;-31
2023/06/26 02:05:13;;;;;;;6.38;2.70;;;22.50;99.90;;;;;;5012776;28;19916;-36
2023/06/26 02:07:38;;;;;;;6.30;2.88;;;22.40;99.90;;;;;;5012750;28;20125;-34
2023/06/26 02:10:05;;;;;;;5.20;2.90;;;22.30;99.90;;;;;;5017187;28;20478;-37
2023/06/26 02:12:30;;;;;;;6.43;3.28;;;22.30;99.90;;;;;;5015736;28;20116;-31
2023/06/26 02:14:56;;;;;;;5.72;2.75;;;22.20;99.90;;;;;;5012735;28;20144;-35
2023/06/26 02:17:22;;;;;;;9.10;3.05;;;22.20;99.90;;;;;;5012616;28;20122;-46
2023/06/26 02:19:47;;;;;;;7.57;2.50;;;22.20;99.90;;;;;;5010806;28;20474;-31
2023/06/26 02:22:16;;;;;;;6.10;3.05;;;22.20;99.90;;;;;;5017967;28;20413;-37
2023/06/26 02:24:43;;;;;;;7.13;2.35;;;22.20;99.90;;;;;;5012158;28;20034;-34
2023/06/26 02:27:09;;;;;;;4.10;2.50;;;22.20;99.90;;;;;;5012429;28;20084;-38
2023/06/26 02:29:35;;;;;;;6.00;2.63;;;22.10;99.90;;;;;;5012389;28;20088;-35
2023/06/26 02:32:02;;;;;;;5.60;2.80;;;22.10;99.90;;;;;;5012402;28;20112;-32
2023/06/26 02:34:27;;;;;;;15.90;3.80;;;22.10;99.90;;;;;;5012410;28;20045;-30
2023/06/26 02:36:58;;;;;;;6.05;2.63;;;22.00;99.90;;;;;;5012432;28;20022;-33
2023/06/26 02:39:24;;;;;;;4.22;2.90;;;22.00;99.90;;;;;;5012263;28;20030;-32
2023/06/26 02:41:49;;;;;;;6.50;2.80;;;22.10;99.90;;;;;;5012492;28;20029;-35
2023/06/26 02:44:15;;;;;;;5.70;2.88;;;22.00;99.90;;;;;;5015052;28;20160;-33
2023/06/26 02:46:41;;;;;;;7.35;2.92;;;22.00;99.90;;;;;;5014498;28;20026;-32
2023/06/26 02:49:07;;;;;;;8.80;3.25;;;21.90;99.90;;;;;;5015761;28;20037;-32
2023/06/26 02:51:33;;;;;;;8.07;2.88;;;21.80;99.90;;;;;;5015878;28;20514;-41
2023/06/26 02:53:59;;;;;;;13.23;3.33;;;21.80;99.90;;;;;;5014613;28;20029;-37
2023/06/26 02:56:28;;;;;;;8.82;2.70;;;21.80;99.90;;;;;;5015088;28;20481;-30
2023/06/26 02:58:54;;;;;;;9.85;3.33;;;21.80;99.90;;;;;;5014814;28;20029;-35
2023/06/26 03:01:20;;;;;;;6.20;3.00;;;21.80;99.90;;;;;;5013540;28;20022;-56
2023/06/26 03:03:46;;;;;;;4.80;2.67;;;21.80;99.90;;;;;;5015053;28;20041;-40
2023/06/26 03:06:13;;;;;;;14.57;4.03;;;21.70;99.90;;;;;;5015410;28;20030;-43
2023/06/26 03:08:39;;;;;;;11.98;3.20;;;21.70;99.90;;;;;;5014930;28;20054;-40
2023/06/26 03:11:09;;;;;;;13.88;3.45;;;21.50;99.90;;;;;;5011837;28;20395;-39
2023/06/26 03:13:35;;;;;;;10.55;3.13;;;21.40;99.90;;;;;;5011271;28;20108;-39
2023/06/26 03:16:01;;;;;;;8.65;3.45;;;21.30;99.90;;;;;;5015009;28;20030;-40
2023/06/26 03:18:27;;;;;;;7.18;3.08;;;21.20;99.90;;;;;;5014541;28;20042;-40
2023/06/26 03:20:56;;;;;;;14.20;4.10;;;21.10;99.90;;;;;;5014970;28;20569;-40
2023/06/26 03:23:22;;;;;;;6.03;3.00;;;21.00;99.90;;;;;;5013712;28;20033;-43
2023/06/26 03:25:48;;;;;;;7.43;3.03;;;21.00;99.90;;;;;;5012232;28;20029;-41
2023/06/26 03:28:14;;;;;;;7.82;3.42;;;20.90;99.90;;;;;;5014089;28;20056;-40
2023/06/26 03:30:40;;;;;;;7.40;3.55;;;20.90;99.90;;;;;;5014059;28;20026;-39
2023/06/26 03:33:05;;;;;;;8.60;3.30;;;20.90;99.90;;;;;;5013818;28;20033;-39
2023/06/26 03:35:31;;;;;;;10.90;3.10;;;20.80;99.90;;;;;;5013941;28;20026;-41
2023/06/26 03:37:58;;;;;;;9.30;3.63;;;20.80;99.90;;;;;;5014963;28;20026;-41
2023/06/26 03:40:24;;;;;;;6.57;2.90;;;20.80;99.90;;;;;;5013632;28;20037;-39
2023/06/26 03:42:49;;;;;;;9.27;3.70;;;20.80;99.90;;;;;;5011539;28;20018;-40
2023/06/26 03:45:15;;;;;;;12.25;3.80;;;20.80;99.90;;;;;;5014123;28;20418;-53
2023/06/26 03:47:41;;;;;;;9.85;3.75;;;20.80;99.90;;;;;;5013638;28;20026;-42
2023/06/26 03:50:07;;;;;;;9.70;3.42;;;20.80;99.90;;;;;;5012830;28;20036;-38
2023/06/26 03:52:33;;;;;;;11.05;3.30;;;20.70;99.90;;;;;;5013365;28;20109;-41
2023/06/26 03:54:58;;;;;;;11.05;3.45;;;20.70;99.90;;;;;;5012774;28;20092;-40
2023/06/26 03:57:24;;;;;;;7.80;3.30;;;20.50;99.90;;;;;;5011630;28;20033;-39
2023/06/26 03:59:51;;;;;;;10.32;3.22;;;20.50;99.90;;;;;;5014165;28;20036;-40
2023/06/26 04:02:17;;;;;;;9.37;3.03;;;20.50;99.90;;;;;;5013317;28;20049;-41
2023/06/26 04:04:42;;;;;;;7.15;3.28;;;20.40;99.90;;;;;;5014868;28;20474;-41
2023/06/26 04:07:08;;;;;;;12.48;3.67;;;20.40;99.90;;;;;;5014546;28;20105;-38
2023/06/26 04:09:33;;;;;;;16.00;4.38;;;20.40;99.90;;;;;;5014447;28;20030;-39
2023/06/26 04:11:59;;;;;;;10.18;3.13;;;20.30;99.90;;;;;;5014465;28;20072;-43
2023/06/26 04:14:25;;;;;;;11.18;3.83;;;20.30;99.90;;;;;;5014367;28;20077;-40
2023/06/26 04:16:50;;;;;;;11.07;3.22;;;20.20;99.90;;;;;;5014147;28;20037;-38
2023/06/26 04:19:16;;;;;;;14.07;3.50;;;20.10;99.90;;;;;;5014381;28;20029;-40
2023/06/26 04:21:42;;;;;;;8.30;2.60;;;20.10;99.90;;;;;;5012969;28;20025;-40
2023/06/26 04:24:07;;;;;;;7.60;2.97;;;20.00;99.90;;;;;;5014149;28;20064;-43
2023/06/26 04:26:33;;;;;;;11.68;3.33;;;19.90;99.90;;;;;;5014170;28;20025;-40
2023/06/26 04:28:59;;;;;;;11.43;3.75;;;19.90;99.90;;;;;;5013961;28;20371;-40
2023/06/26 04:31:25;;;;;;;8.63;2.47;;;19.90;99.90;;;;;;5014125;28;20020;-41
2023/06/26 04:33:50;;;;;;;15.05;3.97;;;19.90;99.90;;;;;;5014043;28;20069;-40
2023/06/26 04:36:19;;;;;;;10.02;3.05;;;19.90;99.90;;;;;;5014204;28;20018;-38
2023/06/26 04:38:44;;;;;;;7.80;2.80;;;19.90;99.90;;;;;;5013843;28;20026;-40
2023/06/26 04:41:10;;;;;;;8.15;2.70;;;19.90;99.90;;;;;;5013908;28;20367;-40
2023/06/26 04:43:36;;;;;;;12.50;3.10;;;19.80;99.90;;;;;;5013920;28;20041;-40
2023/06/26 04:46:05;;;;;;;9.35;2.70;;;19.80;99.90;;;;;;5014132;28;20025;-42
2023/06/26 04:48:31;;;;;;;11.50;3.30;;;19.80;99.90;;;;;;5028886;28;20034;-40
2023/06/26 04:50:58;;;;;;;6.13;2.95;;;19.70;99.90;;;;;;5011642;28;20049;-39
2023/06/26 04:53:24;;;;;;;5.70;3.03;;;19.60;99.90;;;;;;5014063;28;20097;-40
2023/06/26 04:55:51;;;;;;;8.90;2.83;;;19.70;99.90;;;;;;5013712;28;20105;-38
2023/06/26 04:58:17;;;;;;;14.93;4.33;;;19.60;99.90;;;;;;5013882;28;20021;-40
2023/06/26 05:00:43;;;;;;;14.20;3.83;;;19.60;99.90;;;;;;5013516;28;20109;-40
2023/06/26 05:03:11;;;;;;;7.20;2.60;;;19.60;99.90;;;;;;5013508;28;20371;-40
2023/06/26 05:05:36;;;;;;;7.40;2.83;;;19.60;99.90;;;;;;5013396;28;20029;-39
2023/06/26 05:08:14;;;;;;;10.60;2.90;;;19.60;99.90;;;;;;5013632;28;20084;-60
2023/06/26 05:10:40;;;;;;;11.48;2.53;;;19.60;99.90;;;;;;5012368;28;20026;-40
2023/06/26 05:13:06;;;;;;;8.80;2.65;;;19.70;99.90;;;;;;5013356;28;20113;-41
2023/06/26 05:15:31;;;;;;;11.68;2.95;;;19.70;99.90;;;;;;5012059;28;20026;-40
2023/06/26 05:17:57;;;;;;;6.50;2.22;;;19.80;99.90;;;;;;5013123;28;20049;-39
2023/06/26 05:20:23;;;;;;;5.30;2.70;;;19.90;99.90;;;;;;5013218;28;20156;-39
2023/06/26 05:22:49;;;;;;;10.07;2.17;;;19.80;99.90;;;;;;5013200;28;20099;-39
2023/06/26 05:25:15;;;;;;;3.33;1.93;;;19.80;99.90;;;;;;5011871;28;20541;-41
2023/06/26 05:27:42;;;;;;;7.22;2.40;;;19.70;99.90;;;;;;5013131;28;20265;-40
2023/06/26 05:30:08;;;;;;;9.00;2.70;;;19.80;99.90;;;;;;5013248;28;20109;-39
2023/06/26 05:32:36;;;;;;;4.22;2.50;;;19.80;99.90;;;;;;5011777;28;20017;-38
2023/06/26 05:35:03;;;;;;;5.68;2.58;;;19.90;99.90;;;;;;5013091;28;20029;-40
2023/06/26 05:37:30;;;;;;;5.97;2.70;;;19.80;99.90;;;;;;5013141;28;20423;-40
2023/06/26 05:39:56;;;;;;;10.60;2.20;;;19.80;99.90;;;;;;5012948;28;20394;-40
2023/06/26 05:42:22;;;;;;;7.07;3.17;;;19.70;99.90;;;;;;5013093;28;20025;-50
2023/06/26 05:44:48;;;;;;;6.50;2.50;;;19.80;99.90;;;;;;5013182;28;20049;-40
2023/06/26 05:47:13;;;;;;;5.72;2.60;;;19.80;99.90;;;;;;5011098;28;20080;-39
2023/06/26 05:49:39;;;;;;;10.77;2.58;;;19.80;99.90;;;;;;5032462;28;20485;-38
2023/06/26 05:52:05;;;;;;;5.82;2.05;;;19.90;99.90;;;;;;5018501;28;20471;-41
2023/06/26 05:54:31;;;;;;;5.68;2.05;;;20.00;99.90;;;;;;5013154;28;20025;-56
2023/06/26 05:57:01;;;;;;;2.05;1.80;;;19.80;99.90;;;;;;5012797;28;20514;-39
2023/06/26 05:59:27;;;;;;;5.15;2.25;;;19.90;99.90;;;;;;5013174;28;20496;-40
2023/06/26 06:01:53;;;;;;;2.85;1.95;;;20.00;99.90;;;;;;5012908;28;20036;-38
2023/06/26 06:04:19;;;;;;;2.92;2.00;;;20.10;99.90;;;;;;5013091;28;20445;-40
2023/06/26 06:06:45;;;;;;;4.03;2.03;;;20.30;99.90;;;;;;5012704;28;20018;-39
2023/06/26 06:09:10;;;;;;;4.63;1.98;;;20.40;99.90;;;;;;5012628;28;20536;-38
2023/06/26 06:11:37;;;;;;;5.60;1.67;;;20.30;99.90;;;;;;5011456;28;20478;-42
2023/06/26 06:14:02;;;;;;;4.28;1.63;;;20.50;99.90;;;;;;5011458;28;20025;-40
2023/06/26 06:16:29;;;;;;;3.67;1.95;;;21.20;99.90;;;;;;5011293;28;20022;-39
2023/06/26 06:18:55;;;;;;;3.70;1.75;;;22.30;99.90;;;;;;5015597;28;20113;-41
2023/06/26 06:21:20;;;;;;;2.80;1.88;;;22.60;99.90;;;;;;5015210;28;20112;-43
2023/06/26 06:23:46;;;;;;;3.10;1.83;;;22.30;99.90;;;;;;5016126;28;20033;-43
2023/06/26 06:26:12;;;;;;;4.53;1.70;;;21.70;99.90;;;;;;5016584;28;20437;-40
2023/06/26 06:28:39;;;;;;;12.15;2.72;;;21.60;99.90;;;;;;5016350;28;20030;-40
2023/06/26 06:31:05;;;;;;;3.83;1.83;;;21.20;99.90;;;;;;5016331;28;20026;-39
2023/06/26 06:33:30;;;;;;;3.95;2.13;;;20.70;99.90;;;;;;5016629;28;20311;-40
2023/06/26 06:35:56;;;;;;;5.45;3.17;;;20.40;99.90;;;;;;5016324;28;20080;-45
2023/06/26 06:38:21;;;;;;;7.80;2.92;;;20.10;99.90;;;;;;5016055;28;20022;-41
2023/06/26 06:40:47;;;;;;;13.02;2.72;;;20.10;99.90;;;;;;5016222;28;20054;-39
2023/06/26 06:43:13;;;;;;;3.58;2.28;;;20.00;99.90;;;;;;5016067;28;20033;-40
2023/06/26 06:46:04;;;;;;;5.10;2.58;;;19.90;99.90;;;;;;5016039;28;20025;-45
2023/06/26 06:48:29;;;;;;;10.98;2.47;;;20.20;99.90;;;;;;5014656;28;20389;-44
2023/06/26 06:50:55;;;;;;;3.10;1.80;;;20.60;99.90;;;;;;5016492;28;20098;-41
2023/06/26 06:53:21;;;;;;;3.20;1.88;;;21.00;99.90;;;;;;5015978;28;20072;-39
2023/06/26 06:55:46;;;;;;;8.63;2.53;;;21.00;99.90;;;;;;5015855;28;20018;-44
2023/06/26 06:58:12;;;;;;;4.13;2.05;;;21.00;99.90;;;;;;5015840;28;20026;-38
2023/06/26 07:00:38;;;;;;;5.72;1.77;;;21.00;99.90;;;;;;5015803;28;20470;-40
2023/06/26 07:03:03;;;;;;;4.97;1.95;;;21.00;99.90;;;;;;5014640;28;20429;-40
2023/06/26 07:05:29;;;;;;;9.65;2.10;;;20.90;99.90;;;;;;5014100;28;20505;-38
2023/06/26 07:07:55;;;;;;;4.18;1.63;;;21.10;99.90;;;;;;5014886;28;20033;-44
2023/06/26 07:10:21;;;;;;;2.88;1.50;;;21.50;99.90;;;;;;5014740;28;20038;-45
2023/06/26 07:12:47;;;;;;;10.38;2.28;;;22.50;99.90;;;;;;5012690;28;20105;-39
2023/06/26 07:15:12;;;;;;;3.78;1.67;;;22.20;99.90;;;;;;5020509;28;20096;-38
2023/06/26 07:17:39;;;;;;;3.10;1.80;;;22.00;99.90;;;;;;5026044;28;20060;-40
2023/06/26 07:20:10;;;;;;;5.40;2.00;;;22.20;99.90;;;;;;5014101;28;20029;-39
2023/06/26 07:22:36;;;;;;;3.80;1.35;;;23.00;99.90;;;;;;5015482;28;20541;-42
2023/06/26 07:25:03;;;;;;;5.65;1.92;;;23.60;99.90;;;;;;5014039;28;20022;-46
2023/06/26 07:27:29;;;;;;;;;;;23.20;99.90;;;;;;5016408;28;20118;-39
2023/06/26 07:29:55;;;;;;;7.90;1.52;;;22.80;99.90;;;;;;5034966;28;20005;-40
2023/06/26 07:32:21;;;;;;;7.38;1.45;;;22.40;99.90;;;;;;5033656;28;20061;-42
2023/06/26 07:34:46;;;;;;;4.55;1.33;;;22.70;99.90;;;;;;5033682;28;20026;-39
2023/06/26 07:37:12;;;;;;;2.42;1.60;;;22.60;99.90;;;;;;5034892;28;20433;-40
2023/06/26 07:39:38;;;;;;;4.43;1.67;;;23.10;99.90;;;;;;5021725;28;20052;-40
2023/06/26 07:42:04;;;;;;;5.05;1.60;;;23.10;99.90;;;;;;5014965;28;20051;-41
2023/06/26 07:44:29;;;;;;;12.98;1.90;;;22.60;99.90;;;;;;5013062;28;20018;-39
2023/06/26 07:46:55;;;;;;;9.80;1.67;;;23.00;99.90;;;;;;4995219;28;20104;-39
2023/06/26 07:49:21;;;;;;;2.70;1.30;;;22.20;99.90;;;;;;4995030;28;20031;-40
2023/06/26 07:51:46;;;;;;;7.47;2.40;;;21.60;99.90;;;;;;5010419;28;20041;-40
2023/06/26 07:54:12;;;;;;;1.65;0.90;;;21.60;99.90;;;;;;4995181;28;20054;-40
2023/06/26 07:56:58;;;;;;;7.95;1.75;;;21.60;99.90;;;;;;4995081;28;20028;-39
2023/06/26 07:59:25;;;;;;;6.35;1.30;;;21.60;99.90;;;;;;5005950;28;20026;-40
2023/06/26 08:01:52;;;;;;;5.15;1.10;;;21.60;99.90;;;;;;5028593;28;20035;-41
2023/06/26 08:04:23;;;;;;;5.10;1.63;;;21.80;99.90;;;;;;5034553;28;20469;-39
2023/06/26 08:06:50;;;;;;;6.95;1.30;;;22.10;99.90;;;;;;5034286;28;20024;-44
2023/06/26 08:09:16;;;;;;;2.92;0.93;;;22.10;99.90;;;;;;5034235;28;20490;-41
2023/06/26 08:11:42;;;;;;;2.00;1.45;;;22.30;99.90;;;;;;5034097;28;20020;-40
2023/06/26 08:14:08;;;;;;;4.30;1.10;;;22.20;99.90;;;;;;5034102;28;20021;-41
2023/06/26 08:16:33;;;;;;;6.07;2.00;;;22.00;99.90;;;;;;5033745;28;20097;-40
2023/06/26 08:19:01;;;;;;;1.70;1.10;;;22.40;99.90;;;;;;5016945;28;20112;-39
2023/06/26 08:21:26;;;;;;;5.03;1.63;;;22.80;99.90;;;;;;5014063;28;20488;-42
2023/06/26 08:23:52;;;;;;;4.38;1.30;;;22.90;99.90;;;;;;5014120;28;20022;-40
2023/06/26 08:26:18;;;;;;;3.22;0.98;;;23.00;99.90;;;;;;5014523;28;20483;-38
2023/06/26 08:28:43;;;;;;;3.00;1.08;;;22.80;99.90;;;;;;5014152;28;20032;-40
2023/06/26 08:31:09;;;;;;;8.50;1.70;;;22.90;99.90;;;;;;5014086;28;20026;-41
2023/06/26 08:33:34;;;;;;;6.18;1.27;;;22.60;99.90;;;;;;5011898;28;20478;-40
2023/06/26 08:36:00;;;;;;;3.45;1.08;;;22.40;99.90;;;;;;5010891;28;20034;-43
2023/06/26 08:38:26;;;;;;;2.38;0.98;;;22.60;99.90;;;;;;5011821;28;20529;-49
2023/06/26 08:40:51;;;;;;;4.72;1.38;;;22.90;99.90;;;;;;5004341;28;20026;-43
2023/06/26 08:43:17;;;;;;;8.10;1.55;;;22.90;99.90;;;;;;5004482;28;20478;-41
2023/06/26 08:45:43;;;;;;;4.10;1.50;;;23.30;99.90;;;;;;5012517;28;20461;-42
2023/06/26 08:48:09;;;;;;;6.10;1.48;;;22.70;99.90;;;;;;5012756;28;20398;-45
2023/06/26 08:50:37;;;;;;;9.82;1.50;;;22.20;99.90;;;;;;5010312;28;20061;-42
2023/06/26 08:53:27;;;;;;;8.43;1.77;;;21.80;99.90;;;;;;5006785;28;20026;-41
2023/06/26 08:55:54;;;;;;;1.15;0.90;;;21.90;99.90;;;;;;5010485;28;20368;-41
2023/06/26 08:58:20;;;;;;;5.20;1.03;;;22.30;99.90;;;;;;5012779;28;20101;-40
2023/06/26 09:00:46;;;;;;;4.38;1.73;;;22.00;99.90;;;;;;5012906;28;20702;-42
2023/06/26 09:03:13;;;;;;;4.15;1.40;;;21.70;99.90;;;;;;5012547;28;20021;-39
2023/06/26 09:05:39;;;;;;;;;;;21.80;99.90;;;;;;5011835;28;20562;-38
2023/06/26 09:08:05;;;;;;;2.97;1.27;;;21.70;99.90;;;;;;5008838;28;20004;-40
2023/06/26 09:10:31;;;;;;;4.32;1.52;;;21.70;99.90;;;;;;4993658;28;20145;-40
2023/06/26 09:12:58;;;;;;;4.90;1.20;;;21.70;99.90;;;;;;4993793;28;20026;-39
2023/06/26 09:15:24;;;;;;;5.30;1.60;;;21.60;99.90;;;;;;5011137;28;20041;-39
2023/06/26 09:17:55;;;;;;;5.80;1.63;;;21.70;99.90;;;;;;5013146;28;20554;-41
2023/06/26 09:20:21;;;;;;;3.15;1.30;;;21.60;99.90;;;;;;5013327;28;20116;-40
2023/06/26 09:22:48;;;;;;;1.55;1.15;;;21.40;99.90;;;;;;5013342;28;20461;-43
2023/06/26 09:25:14;;;;;;;4.72;1.38;;;21.40;99.90;;;;;;5013125;28;20050;-41
2023/06/26 09:27:43;;;;;;;3.90;1.10;;;21.50;99.90;;;;;;5013554;28;20026;-45
2023/06/26 09:30:09;;;;;;;4.63;1.48;;;21.50;99.90;;;;;;5013296;28;20034;-39
2023/06/26 09:32:37;;;;;;;1.13;0.93;;;21.50;99.90;;;;;;5013183;28;20026;-41
2023/06/26 09:35:04;;;;;;;2.20;1.15;;;21.60;99.90;;;;;;5013375;28;20505;-39
2023/06/26 09:37:30;;;;;;;4.35;1.20;;;21.60;99.90;;;;;;5013297;28;20093;-37
2023/06/26 09:39:56;;;;;;;5.07;1.17;;;21.50;99.90;;;;;;5012076;28;20035;-43
2023/06/26 09:42:21;;;;;;;2.55;1.10;;;21.30;99.90;;;;;;5013156;28;20100;-39
2023/06/26 09:44:48;;;;;;;2.53;1.50;;;21.60;99.90;;;;;;5013379;28;20545;-40
2023/06/26 09:47:19;;;;;;;4.50;1.63;;;21.80;99.90;;;;;;5013132;28;20022;-41
2023/06/26 09:49:45;;;;;;;8.13;1.08;;;21.40;99.90;;;;;;5028251;28;20285;-41
2023/06/26 09:52:19;;;;;;;6.30;1.55;;;21.20;99.90;;;;;;5013448;28;20489;-49
2023/06/26 09:54:45;;;;;;;7.68;1.10;;;21.60;99.90;;;;;;5017099;28;20117;-50
2023/06/26 09:57:16;;;;;;;4.45;1.38;;;21.90;99.90;;;;;;5017194;28;20081;-43
2023/06/26 09:59:46;;;;;;;4.78;1.13;;;22.30;99.90;;;;;;5017016;28;20030;-42
2023/06/26 10:02:12;;;;;;;3.30;1.05;;;22.40;99.90;;;;;;5017015;28;20033;-40
2023/06/26 10:04:38;;;;;;;6.30;0.98;;;22.60;99.90;;;;;;5013232;28;20038;-37
2023/06/26 10:07:11;;;;;;;4.93;1.40;;;22.60;99.90;;;;;;5018380;28;20028;-40
2023/06/26 10:09:42;;;;;;;1.05;0.77;;;22.90;99.90;;;;;;5035379;28;20083;-41
2023/06/26 10:12:15;;;;;;;2.65;1.00;;;23.00;99.90;;;;;;5035057;28;20477;-40
2023/06/26 10:14:42;;;;;;;3.90;1.10;;;22.60;99.90;;;;;;5036315;28;20026;-40
2023/06/26 10:17:11;;;;;;;2.42;1.10;;;22.10;99.90;;;;;;5036316;28;20037;-46
2023/06/26 10:19:39;;;;;;;6.00;1.35;;;21.60;99.90;;;;;;5026618;28;20066;-43
2023/06/26 10:22:05;;;;;;;3.63;1.08;;;21.40;99.90;;;;;;5016577;28;20030;-43
2023/06/26 10:24:34;;;;;;;6.13;1.08;;;21.80;99.90;;;;;;5016425;28;20390;-40
2023/06/26 10:27:25;;;;;;;3.47;1.10;;;22.20;99.90;;;;;;5016676;28;20487;-44
2023/06/26 10:29:58;;;;;;;7.38;1.90;;;21.90;99.90;;;;;;5013625;28;20512;-42
2023/06/26 10:32:26;;;;;;;2.17;0.98;;;21.70;99.90;;;;;;5016420;28;20390;-37
2023/06/26 10:34:53;;;;;;;2.30;1.30;;;21.60;99.90;;;;;;5016643;28;20156;-44
2023/06/26 10:37:19;;;;;;;4.20;1.30;;;21.50;99.90;;;;;;5016518;28;20030;-40
2023/06/26 10:39:49;;;;;;;6.57;1.45;;;21.60;99.90;;;;;;5016112;28;20030;-42
2023/06/26 10:42:17;;;;;;;5.85;1.00;;;21.70;99.90;;;;;;5016252;28;20030;-44
2023/06/26 10:44:43;;;;;;;;;;;21.30;99.90;;;;;;5014776;28;20034;-42
2023/06/26 10:47:09;;;;;;;1.70;0.90;;;21.00;99.90;;;;;;5015141;28;19909;-43
2023/06/26 10:49:37;;;;;;;3.30;1.25;;;20.80;99.90;;;;;;5012595;28;20476;-41
2023/06/26 10:52:03;;;;;;;5.18;1.05;;;21.10;99.90;;;;;;5015856;28;20109;-41
2023/06/26 10:54:30;;;;;;;2.83;0.90;;;21.30;99.90;;;;;;5013498;28;20108;-41
2023/06/26 10:56:59;;;;;;;1.70;0.70;;;21.60;99.90;;;;;;5015784;28;20030;-40
2023/06/26 10:59:27;;;;;;;2.92;1.00;;;21.60;99.90;;;;;;5015150;28;20033;-42
2023/06/26 11:01:59;;;;;;;6.75;1.00;;;21.50;99.90;;;;;;5012838;28;20373;-42
2023/06/26 11:04:41;;;;;;;5.30;1.30;;;21.20;99.90;;;;;;5014319;28;20025;-41
2023/06/26 11:07:23;;;;;;;4.18;1.13;;;21.20;99.90;;;;;;5015943;28;20029;-44
2023/06/26 11:09:55;;;;;;;3.53;0.82;;;21.30;99.90;;;;;;5012690;28;20033;-43
2023/06/26 11:12:41;;;;;;;3.40;0.88;;;21.50;99.90;;;;;;5015361;28;20030;-42
2023/06/26 11:15:15;;;;;;;5.55;0.98;;;21.50;99.90;;;;;;5009969;28;20033;-40
2023/06/26 11:17:42;;;;;;;3.47;0.70;;;21.40;99.90;;;;;;5012538;28;20038;-44
2023/06/26 11:20:13;;;;;;;8.93;0.93;;;21.20;99.90;;;;;;5011830;28;20028;-41
2023/06/26 11:22:42;;;;;;;5.38;1.52;;;21.20;99.90;;;;;;4996157;28;20034;-41
2023/06/26 11:25:10;;;;;;;2.67;0.68;;;21.20;99.90;;;;;;5007372;28;20113;-42
2023/06/26 11:27:38;;;;;;;2.03;0.85;;;21.20;99.90;;;;;;5015090;28;20052;-40
2023/06/26 11:30:09;;;;;;;1.58;0.70;;;21.20;99.90;;;;;;5013752;28;20112;-42
2023/06/26 11:32:38;;;;;;;4.68;1.00;;;20.90;99.90;;;;;;5013361;28;20489;-46
2023/06/26 11:35:05;;;;;;;8.65;0.90;;;21.20;99.90;;;;;;5015139;28;20018;-39
2023/06/26 11:37:31;;;;;;;1.48;1.00;;;21.60;99.90;;;;;;5014032;28;20544;-40
2023/06/26 11:39:57;;;;;;;3.83;0.80;;;21.70;99.90;;;;;;5014090;28;20025;-41
2023/06/26 11:42:25;;;;;;;4.18;0.60;;;21.60;99.90;;;;;;5014792;28;20084;-40
2023/06/26 11:44:51;;;;;;;4.38;0.73;;;21.30;99.90;;;;;;5013955;28;20502;-41
2023/06/26 11:47:18;;;;;;;2.25;1.25;;;21.50;99.90;;;;;;5014211;28;20054;-41
2023/06/26 11:49:45;;;;;;;9.95;1.30;;;21.30;99.90;;;;;;5014250;28;20117;-40
2023/06/26 11:52:11;;;;;;;2.00;0.97;;;20.90;99.90;;;;;;5014885;28;20049;-40
2023/06/26 11:54:37;;;;;;;4.68;1.48;;;21.10;99.90;;;;;;5013830;28;20022;-43
2023/06/26 11:57:03;;;;;;;2.47;0.90;;;21.30;99.90;;;;;;5013085;28;20076;-40
2023/06/26 11:59:39;;;;;;;6.30;0.80;;;21.30;99.90;;;;;;5013731;28;20025;-42
2023/06/26 12:02:10;;;;;;;4.00;1.30;;;21.30;99.90;;;;;;5012385;28;20061;-38
2023/06/26 12:04:38;;;;;;;8.63;1.00;;;21.30;99.90;;;;;;5003992;28;20435;-47
2023/06/26 12:07:07;;;;;;;1.45;0.60;;;21.50;99.90;;;;;;5012839;28;20030;-42
2023/06/26 12:09:33;;;;;;;3.45;1.02;;;21.80;99.90;;;;;;5014384;28;20033;-44
2023/06/26 12:11:59;;;;;;;1.08;0.60;;;21.80;99.90;;;;;;5013362;28;20414;-41
2023/06/26 12:14:29;;;;;;;4.70;0.63;;;21.60;99.90;;;;;;5013641;28;20030;-43
2023/06/26 12:16:55;;;;;;;3.60;0.57;;;21.30;99.90;;;;;;5012102;28;20091;-41
2023/06/26 12:19:28;;;;;;;1.58;0.65;;;21.10;99.90;;;;;;5012627;28;20092;-41
2023/06/26 12:21:56;;;;;;;0.50;0.47;;;21.20;99.90;;;;;;5012662;28;20033;-43
2023/06/26 12:24:23;;;;;;;2.35;0.45;;;21.40;99.90;;;;;;5012690;28;20030;-39
2023/06/26 12:26:55;;;;;;;1.35;0.90;;;21.60;99.90;;;;;;5012770;28;20107;-42
2023/06/26 12:29:22;;;;;;;3.00;0.70;;;21.60;99.90;;;;;;5028543;28;20612;-40
2023/06/26 12:31:52;;;;;;;3.15;0.77;;;21.60;99.90;;;;;;5013511;28;20041;-40
2023/06/26 12:34:20;;;;;;;1.17;0.50;;;21.60;99.90;;;;;;5013492;28;20482;-41
2023/06/26 12:36:50;;;;;;;0.98;0.60;;;21.50;99.90;;;;;;5012839;28;20057;-37
2023/06/26 12:39:18;;;;;;;4.75;0.73;;;21.90;99.90;;;;;;5012901;28;20026;-40
2023/06/26 12:41:46;;;;;;;5.75;1.45;;;22.10;99.90;;;;;;5013099;28;20483;-42
2023/06/26 12:44:22;;;;;;;;;;;22.00;99.90;;;;;;5013672;28;20026;-40
2023/06/26 12:46:49;;;;;;;3.50;1.93;;;22.00;99.90;;;;;;5007745;28;19913;-40
2023/06/26 12:49:16;;;;;;;3.05;0.65;;;21.70;99.90;;;;;;5011126;28;20026;-40